Pagina principale
METAR-TAF:

METAR-TAF

Aeroporti :

Kutaisi, Georgia

latitudine: 42-10-35N, longitudine: 042-28-57E, altezza: 68 m

Osservazione

Il bollettino è stato emesso 37 minuti fa, alle 03:30 UTC
Vento 3 kt da direzioni variabili
Temperature 9°C
Umidità 81%
Pressione 1019 hPa
Visibilità 10 km o più
nessuna nube inferiore a 1500 m e nessun cumulonembo

METAR: UGKO 240330Z VRB03KT CAVOK 09/06 Q1019 NOSIG

Ora: 08:07 (04:07 UTC)

Previsione

Il bollettino è stato emesso 5 ore e 7 minuti fa, alle 23:00 UTC
Previsione valida dal 24 alle 00 UTC al 24 alle 24 UTC
Vento 7 kt da est
Visibilità 10 km o più
nessuna nube inferiore a 1500 m e nessun cumulonembo
Evoluzione graduale
dal 24 alle 10 UTC al 24 alle 12 UTC
Vento 7 kt da ovest

TAF: UGKO 232300Z 2400/2424 09007KT CAVOK TX26/2411Z TN10/2401Z BECMG 2410/2412 26007KT

Osservazioni e previsioni meteorologiche di più di 4000 aeroporti (messaggi METAR e TAF).

Le stazioni disponibili sono rappresentate dai dischi gialli e rossi sulla carta.

Puntare il mouse per vedere il nome della stazione.

Clicca sopra per visualizzare le osservazioni e previsioni meteorologiche.

Per cambiare la mappa : fare clic sui pulsanti verdi con una croce nera per ingrandire, il pulsante verde con un trattino per diminuire, o sulla freccia verde per le mappe adiacenti.


METAR-TAF: